createdAt,value
2022-12-24T00:02:34.865Z,99293.28
2022-12-24T00:05:16.982Z,99302.09
2022-12-24T00:08:05.725Z,99303.94
2022-12-24T00:10:59.031Z,99304.31
2022-12-24T00:13:41.690Z,99309.47
2022-12-24T00:16:30.874Z,99306.75
2022-12-24T00:19:19.677Z,99309.56
2022-12-24T00:22:01.843Z,99305.19
2022-12-24T00:24:50.741Z,99310.75
2022-12-24T00:27:39.659Z,99309.94
2022-12-24T00:30:28.691Z,99312.28
2022-12-24T00:33:11.540Z,99314.63
2022-12-24T00:36:02.189Z,99311.03
2022-12-24T00:38:44.536Z,99312.34
2022-12-24T00:41:32.971Z,99311.22
2022-12-24T00:44:19.681Z,99322.28
2022-12-24T00:47:11.978Z,99324.25
2022-12-24T00:49:54.676Z,99329.22
2022-12-24T00:52:37.021Z,99325.88
2022-12-24T00:55:25.631Z,99322.56
2022-12-24T00:58:20.518Z,99339.75
2022-12-24T01:01:09.681Z,99335.59
2022-12-24T01:03:58.688Z,99342.97
2022-12-24T01:06:41.072Z,99335.06
2022-12-24T01:09:29.616Z,99337.50
2022-12-24T01:12:18.585Z,99338.97
2022-12-24T01:15:07.536Z,99347.47
2022-12-24T01:17:55.944Z,99338.25
2022-12-24T01:20:40.535Z,99351.66
2022-12-24T01:23:28.969Z,99347.06
2022-12-24T01:26:12.711Z,99352.16
2022-12-24T01:28:55.408Z,99356.34
2022-12-24T01:31:44.738Z,99347.19
2022-12-24T01:34:33.997Z,99349.63
2022-12-24T01:37:15.742Z,99352.06
2022-12-24T01:40:17.662Z,99355.84
2022-12-24T01:43:25.548Z,99353.75
2022-12-24T01:46:40.631Z,99359.63
2022-12-24T01:49:24.987Z,99368.22
2022-12-24T01:52:18.702Z,99373.84
2022-12-24T01:55:24.659Z,99376.16
2022-12-24T01:58:22.749Z,99372.91
2022-12-24T02:01:06.023Z,99384.72
2022-12-24T02:03:54.740Z,99386.09
2022-12-24T02:06:43.571Z,99384.78
2022-12-24T02:09:32.599Z,99385.53
2022-12-24T02:12:21.554Z,99390.34
2022-12-24T02:15:11.649Z,99389.75
2022-12-24T02:18:08.506Z,99391.09
2022-12-24T02:21:15.695Z,99401.69
2022-12-24T02:24:31.694Z,99403.72
2022-12-24T02:27:24.971Z,99412.84
2022-12-24T02:30:50.180Z,99419.50
2022-12-24T02:33:54.886Z,99414.38
2022-12-24T02:36:48.537Z,99430.16
2022-12-24T02:40:01.157Z,99439.66
2022-12-24T02:42:52.694Z,99439.16
2022-12-24T02:45:39.986Z,99442.38
2022-12-24T02:48:30.653Z,99439.97
2022-12-24T02:51:18.968Z,99448.84
2022-12-24T02:54:07.655Z,99454.66
2022-12-24T02:57:06.500Z,99455.94
2022-12-24T03:00:10.634Z,99454.22
2022-12-24T03:03:26.922Z,99462.41
2022-12-24T03:06:29.599Z,99470.38
2022-12-24T03:09:42.908Z,99467.88
2022-12-24T03:12:38.652Z,99466.13
2022-12-24T03:15:25.274Z,99471.41
2022-12-24T03:18:17.642Z,99470.09
2022-12-24T03:21:09.030Z,99470.44
2022-12-24T03:23:58.660Z,99467.41
2022-12-24T03:26:48.920Z,99478.94
2022-12-24T03:29:30.479Z,99474.16
2022-12-24T03:32:12.809Z,99478.66
2022-12-24T03:35:01.659Z,99487.44
2022-12-24T03:37:43.808Z,99488.72
2022-12-24T03:40:32.557Z,99494.91
2022-12-24T03:43:20.907Z,99499.00
2022-12-24T03:46:03.645Z,99509.31
2022-12-24T03:48:51.893Z,99512.34
2022-12-24T03:51:34.646Z,99524.59
2022-12-24T03:54:22.999Z,99523.66
2022-12-24T03:57:05.656Z,99521.06
2022-12-24T04:00:00.525Z,99533.38
2022-12-24T04:02:51.945Z,99533.31
2022-12-24T04:05:40.562Z,99536.63
2022-12-24T04:08:28.857Z,99549.09
2022-12-24T04:11:13.692Z,99547.97
2022-12-24T04:13:55.802Z,99546.22
2022-12-24T04:16:44.800Z,99553.63
2022-12-24T04:19:27.002Z,99547.47
2022-12-24T04:22:15.472Z,99562.16
2022-12-24T04:24:57.809Z,99562.59
2022-12-24T04:27:46.622Z,99560.19
2022-12-24T04:30:28.869Z,99565.72
2022-12-24T04:33:17.578Z,99567.16
2022-12-24T04:36:06.895Z,99568.22
2022-12-24T04:38:49.892Z,99574.72
2022-12-24T04:41:37.893Z,99587.53
2022-12-24T04:44:19.685Z,99569.59
2022-12-24T04:47:07.853Z,99563.97
2022-12-24T04:49:50.533Z,99566.47
2022-12-24T04:52:39.620Z,99561.91
2022-12-24T04:55:21.922Z,99561.91
2022-12-24T04:58:10.625Z,99560.31
2022-12-24T05:00:59.958Z,99563.97
2022-12-24T05:03:42.631Z,99566.19
2022-12-24T05:06:34.931Z,99578.16
2022-12-24T05:09:17.549Z,99573.44
2022-12-24T05:12:06.595Z,99574.69
2022-12-24T05:14:48.912Z,99578.16
2022-12-24T05:17:37.590Z,99579.88
2022-12-24T05:20:20.038Z,99581.19
2022-12-24T05:23:26.596Z,99588.25
2022-12-24T05:26:30.857Z,99594.13
2022-12-24T05:29:20.496Z,99585.41
2022-12-24T05:32:03.068Z,99586.75
2022-12-24T05:34:51.671Z,99572.50
2022-12-24T05:37:33.837Z,99567.47
2022-12-24T05:40:22.626Z,99558.69
2022-12-24T05:43:04.896Z,99564.44
2022-12-24T05:45:53.635Z,99564.88
2022-12-24T05:48:35.851Z,99550.94
2022-12-24T05:51:29.543Z,99549.34
2022-12-24T05:54:11.910Z,99554.63
2022-12-24T05:57:00.556Z,99546.56
2022-12-24T05:59:49.466Z,99545.78
2022-12-24T06:02:37.887Z,99537.31
2022-12-24T06:05:20.602Z,99537.88
2022-12-24T06:08:08.979Z,99527.47
2022-12-24T06:10:51.602Z,99514.59
2022-12-24T06:13:34.257Z,99523.00
2022-12-24T06:16:28.685Z,99521.69
2022-12-24T06:19:10.742Z,99524.56
2022-12-24T06:21:59.549Z,99517.47
2022-12-24T06:24:48.538Z,99509.53
2022-12-24T06:27:31.015Z,99512.28
2022-12-24T06:30:19.652Z,99505.22
2022-12-24T06:33:02.054Z,99498.03
2022-12-24T06:35:50.504Z,99496.06
2022-12-24T06:38:39.517Z,99489.69
2022-12-24T06:41:29.492Z,99482.63
2022-12-24T06:44:18.948Z,99473.34
2022-12-24T06:47:06.911Z,99465.03
2022-12-24T06:49:48.602Z,99462.31
2022-12-24T06:52:37.635Z,99451.38
2022-12-24T06:55:26.630Z,99444.53
2022-12-24T06:58:21.485Z,99440.88
2022-12-24T07:01:14.964Z,99439.84
2022-12-24T07:03:57.541Z,99433.41
2022-12-24T07:06:45.866Z,99426.97
2022-12-24T07:09:27.573Z,99412.38
2022-12-24T07:12:10.090Z,99410.94
2022-12-24T07:14:58.548Z,99413.41
2022-12-24T07:17:49.579Z,99404.22
2022-12-24T07:20:32.072Z,99403.50
2022-12-24T07:23:20.577Z,99393.00
2022-12-24T07:26:03.702Z,99392.91
2022-12-24T07:28:52.525Z,99390.03
2022-12-24T07:31:35.153Z,99372.72
2022-12-24T07:34:23.611Z,99371.84
2022-12-24T07:37:05.839Z,99369.53
2022-12-24T07:39:54.573Z,99374.63
2022-12-24T07:42:37.253Z,99364.16
2022-12-24T07:45:26.903Z,99357.03
2022-12-24T07:48:08.849Z,99352.66
2022-12-24T07:50:58.627Z,99349.84
2022-12-24T07:53:41.201Z,99343.47
2022-12-24T07:56:29.481Z,99337.53
2022-12-24T07:59:28.660Z,99342.66
2022-12-24T08:02:19.174Z,99341.44
2022-12-24T08:05:01.593Z,99326.75
2022-12-24T08:07:51.004Z,99334.22
2022-12-24T08:10:33.477Z,99324.09
2022-12-24T08:13:23.693Z,99320.31
2022-12-24T08:16:07.045Z,99313.47
2022-12-24T08:18:55.675Z,99314.50
2022-12-24T08:21:37.884Z,99310.81
2022-12-24T08:24:26.597Z,99304.81
2022-12-24T08:27:08.908Z,99297.88
2022-12-24T08:29:57.474Z,99292.13
2022-12-24T08:32:47.639Z,99301.06
2022-12-24T08:35:37.035Z,99289.13
2022-12-24T08:38:19.444Z,99283.81
2022-12-24T08:41:09.206Z,99285.09
2022-12-24T08:43:58.538Z,99276.09
2022-12-24T08:46:47.529Z,99278.44
2022-12-24T08:49:36.600Z,99280.50
2022-12-24T08:52:18.952Z,99275.47
2022-12-24T08:55:07.580Z,99275.66
2022-12-24T08:57:50.030Z,99272.19
2022-12-24T09:00:39.542Z,99274.47
2022-12-24T09:03:27.373Z,99271.00
2022-12-24T09:06:17.629Z,99268.47
2022-12-24T09:08:59.963Z,99267.44
2022-12-24T09:11:48.708Z,99264.81
2022-12-24T09:14:31.000Z,99261.13
2022-12-24T09:17:20.571Z,99256.81
2022-12-24T09:20:03.066Z,99257.81
2022-12-24T09:22:51.659Z,99256.53
2022-12-24T09:25:33.794Z,99258.53
2022-12-24T09:28:22.561Z,99265.44
2022-12-24T09:31:10.323Z,99262.59
2022-12-24T09:33:59.592Z,99254.13
2022-12-24T09:36:49.493Z,99257.09
2022-12-24T09:39:31.773Z,99250.75
2022-12-24T09:42:39.555Z,99241.88
2022-12-24T09:45:31.451Z,99231.19
2022-12-24T09:48:31.419Z,99232.88
2022-12-24T09:51:37.829Z,99227.63
2022-12-24T09:54:49.274Z,99210.75
2022-12-24T09:57:45.455Z,99218.50
2022-12-24T10:00:52.350Z,99213.19
2022-12-24T10:03:41.511Z,99212.28
2022-12-24T10:06:35.956Z,99203.25
2022-12-24T10:09:42.564Z,99200.84
2022-12-24T10:13:07.248Z,99202.84
2022-12-24T10:16:15.643Z,99208.50
2022-12-24T10:19:09.975Z,99210.31
2022-12-24T10:22:12.552Z,99210.31
2022-12-24T10:25:45.586Z,99204.41
2022-12-24T10:28:50.420Z,99199.38
2022-12-24T10:31:45.489Z,99203.50
2022-12-24T10:34:41.453Z,99194.66
2022-12-24T10:37:31.893Z,99196.34
2022-12-24T10:40:43.412Z,99196.41
2022-12-24T10:43:42.496Z,99198.75
2022-12-24T10:46:40.931Z,99200.53
2022-12-24T10:49:33.576Z,99196.41
2022-12-24T10:52:36.814Z,99187.13
2022-12-24T10:55:27.614Z,99189.16
2022-12-24T10:58:18.309Z,99184.34
2022-12-24T11:01:09.109Z,99175.56
2022-12-24T11:04:31.985Z,99180.81
2022-12-24T11:07:26.539Z,99175.31
2022-12-24T11:10:16.572Z,99179.91
2022-12-24T11:13:35.129Z,99175.50
2022-12-24T11:16:32.693Z,99176.06
2022-12-24T11:19:25.888Z,99186.84
2022-12-24T11:22:38.450Z,99177.59
2022-12-24T11:25:40.562Z,99180.03
2022-12-24T11:28:35.568Z,99180.69
2022-12-24T11:31:30.346Z,99177.69
2022-12-24T11:34:45.499Z,99177.53
2022-12-24T11:37:32.878Z,99173.38
2022-12-24T11:40:34.476Z,99175.47
2022-12-24T11:43:45.334Z,99177.78
2022-12-24T11:46:45.666Z,99177.09
2022-12-24T11:49:37.526Z,99172.34
2022-12-24T11:52:20.099Z,99181.16
2022-12-24T11:55:16.346Z,99177.25
2022-12-24T11:58:12.381Z,99180.69
2022-12-24T12:01:17.703Z,99182.03
2022-12-24T12:04:04.948Z,99182.63
2022-12-24T12:07:15.109Z,99173.72
2022-12-24T12:10:15.814Z,99181.91
2022-12-24T12:13:27.485Z,99187.03
2022-12-24T12:16:56.695Z,99184.34
2022-12-24T12:19:46.575Z,99187.94
2022-12-24T12:22:48.587Z,99189.16
2022-12-24T12:25:40.910Z,99182.97
2022-12-24T12:28:32.571Z,99185.63
2022-12-24T12:31:31.879Z,99186.72
2022-12-24T12:34:23.437Z,99190.56
2022-12-24T12:37:14.848Z,99194.34
2022-12-24T12:40:04.641Z,99196.34
2022-12-24T12:43:13.910Z,99196.75
2022-12-24T12:46:06.481Z,99195.94
2022-12-24T12:49:06.034Z,99190.66
2022-12-24T12:51:50.797Z,99191.28
2022-12-24T12:55:23.915Z,99195.50
2022-12-24T12:58:12.549Z,99201.81
2022-12-24T13:01:07.885Z,99204.16
2022-12-24T13:03:59.525Z,99207.72
2022-12-24T13:07:12.732Z,99213.72
2022-12-24T13:10:22.541Z,99213.81
2022-12-24T13:13:35.060Z,99215.50
2022-12-24T13:16:46.649Z,99218.84
2022-12-24T13:20:11.968Z,99223.22
2022-12-24T13:23:18.483Z,99224.16
2022-12-24T13:26:21.066Z,99233.09
2022-12-24T13:29:02.461Z,99228.94
2022-12-24T13:31:44.734Z,99230.66
2022-12-24T13:34:52.409Z,99239.09
2022-12-24T13:37:41.837Z,99241.28
2022-12-24T13:40:34.468Z,99236.53
2022-12-24T13:43:22.843Z,99231.94
2022-12-24T13:46:06.611Z,99242.47
2022-12-24T13:48:54.778Z,99241.84
2022-12-24T13:51:37.576Z,99239.84
2022-12-24T13:54:32.773Z,99236.56
2022-12-24T13:57:55.481Z,99242.34
2022-12-24T14:00:46.869Z,99245.06
2022-12-24T14:03:50.405Z,99245.66
2022-12-24T14:06:37.812Z,99249.16
2022-12-24T14:09:32.580Z,99243.38
2022-12-24T14:12:17.548Z,99233.81
2022-12-24T14:15:08.462Z,99231.97
2022-12-24T14:17:57.789Z,99239.84
2022-12-24T14:20:41.530Z,99234.91
2022-12-24T14:23:33.747Z,99229.97
2022-12-24T14:26:29.845Z,99232.81
2022-12-24T14:29:34.917Z,99239.19
2022-12-24T14:32:25.413Z,99244.19
2022-12-24T14:35:21.595Z,99239.19
2022-12-24T14:38:09.833Z,99252.69
2022-12-24T14:41:29.413Z,99243.19
2022-12-24T14:44:38.827Z,99245.88
2022-12-24T14:47:51.619Z,99260.16
2022-12-24T14:50:59.851Z,99255.16
2022-12-24T14:54:03.548Z,99260.78
2022-12-24T14:56:51.798Z,99258.06
2022-12-24T14:59:36.469Z,99262.84
2022-12-24T15:02:58.508Z,99270.91
2022-12-24T15:05:40.764Z,99262.63
2022-12-24T15:08:39.459Z,99271.13
2022-12-24T15:11:28.754Z,99265.72
2022-12-24T15:14:20.508Z,99261.38
2022-12-24T15:17:11.899Z,99273.81
2022-12-24T15:20:01.529Z,99274.63
2022-12-24T15:22:44.346Z,99268.44
2022-12-24T15:25:39.353Z,99268.22
2022-12-24T15:28:30.819Z,99280.41
2022-12-24T15:31:21.552Z,99280.00
2022-12-24T15:34:05.831Z,99279.81
2022-12-24T15:36:54.354Z,99279.59
2022-12-24T15:39:37.703Z,99288.25
2022-12-24T15:42:34.442Z,99288.69
2022-12-24T15:45:28.747Z,99300.06
2022-12-24T15:48:16.458Z,99299.03
2022-12-24T15:51:10.773Z,99302.53
2022-12-24T15:53:53.474Z,99293.84
2022-12-24T15:56:44.917Z,99289.72
2022-12-24T15:59:29.441Z,99296.53
2022-12-24T16:02:50.576Z,99294.88
2022-12-24T16:05:35.804Z,99296.09
2022-12-24T16:08:24.511Z,99296.94
2022-12-24T16:11:34.796Z,99303.75
2022-12-24T16:14:28.445Z,99299.41
2022-12-24T16:17:10.703Z,99300.66
2022-12-24T16:20:02.403Z,99299.84
2022-12-24T16:22:46.753Z,99299.00
2022-12-24T16:25:36.509Z,99300.66
2022-12-24T16:28:23.564Z,99304.78
2022-12-24T16:31:12.491Z,99302.91
2022-12-24T16:33:55.800Z,99309.34
2022-12-24T16:36:44.461Z,99314.75
2022-12-24T16:39:33.719Z,99315.97
2022-12-24T16:42:40.467Z,99316.81
2022-12-24T16:45:28.752Z,99313.06
2022-12-24T16:48:14.486Z,99313.50
2022-12-24T16:51:03.384Z,99312.66
2022-12-24T16:53:45.840Z,99313.41
2022-12-24T16:56:34.373Z,99314.66
2022-12-24T16:59:28.784Z,99319.44
2022-12-24T17:02:21.857Z,99317.78
2022-12-24T17:05:10.434Z,99317.97
2022-12-24T17:07:59.475Z,99315.84
2022-12-24T17:10:42.776Z,99315.66
2022-12-24T17:13:24.506Z,99321.00
2022-12-24T17:16:15.340Z,99321.22
2022-12-24T17:18:59.500Z,99326.25
2022-12-24T17:21:41.975Z,99316.78
2022-12-24T17:24:30.494Z,99314.91
2022-12-24T17:27:19.694Z,99308.09
2022-12-24T17:30:02.416Z,99312.84
2022-12-24T17:32:51.918Z,99311.81
2022-12-24T17:35:33.374Z,99296.91
2022-12-24T17:38:22.433Z,99293.16
2022-12-24T17:41:17.881Z,99305.81
2022-12-24T17:44:06.373Z,99300.88
2022-12-24T17:46:56.487Z,99305.16
2022-12-24T17:49:38.810Z,99297.53
2022-12-24T17:52:27.440Z,99304.09
2022-12-24T17:55:17.771Z,99303.31
2022-12-24T17:58:00.395Z,99291.13
2022-12-24T18:00:50.828Z,99289.72
2022-12-24T18:03:33.435Z,99291.34
2022-12-24T18:06:22.756Z,99300.22
2022-12-24T18:09:05.297Z,99297.16
2022-12-24T18:11:47.688Z,99278.53
2022-12-24T18:14:36.410Z,99283.28
2022-12-24T18:17:18.810Z,99283.69
2022-12-24T18:20:07.494Z,99282.22
2022-12-24T18:22:50.621Z,99279.16
2022-12-24T18:25:39.465Z,99278.94
2022-12-24T18:28:28.300Z,99280.56
2022-12-24T18:31:16.849Z,99272.09
2022-12-24T18:34:05.403Z,99276.66
2022-12-24T18:36:54.527Z,99271.03
2022-12-24T18:39:44.369Z,99267.34
2022-12-24T18:42:26.962Z,99260.69
2022-12-24T18:45:15.476Z,99256.97
2022-12-24T18:47:57.847Z,99263.97
2022-12-24T18:50:48.447Z,99253.47
2022-12-24T18:53:30.830Z,99250.63
2022-12-24T18:56:22.511Z,99257.22
2022-12-24T18:59:07.835Z,99251.38
2022-12-24T19:01:56.620Z,99251.63
2022-12-24T19:04:46.358Z,99255.97
2022-12-24T19:07:35.974Z,99262.81
2022-12-24T19:10:18.497Z,99251.44
2022-12-24T19:13:07.474Z,99259.28
2022-12-24T19:15:56.516Z,99261.53
2022-12-24T19:18:45.453Z,99262.19
2022-12-24T19:21:27.753Z,99258.88
2022-12-24T19:24:18.307Z,99251.00
2022-12-24T19:27:01.465Z,99249.78
2022-12-24T19:29:50.447Z,99261.34
2022-12-24T19:32:32.915Z,99251.84
2022-12-24T19:35:21.357Z,99258.41
2022-12-24T19:38:03.706Z,99255.50
2022-12-24T19:40:52.373Z,99251.19
2022-12-24T19:43:43.789Z,99260.50
2022-12-24T19:46:37.280Z,99257.19
2022-12-24T19:49:26.885Z,99256.16
2022-12-24T19:52:08.499Z,99249.78
2022-12-24T19:54:50.753Z,99256.78
2022-12-24T19:57:39.446Z,99252.56
2022-12-24T20:00:28.346Z,99259.19
2022-12-24T20:03:10.880Z,99253.19
2022-12-24T20:06:02.421Z,99256.22
2022-12-24T20:08:46.698Z,99254.59
2022-12-24T20:11:36.412Z,99259.97
2022-12-24T20:14:19.796Z,99258.09
2022-12-24T20:17:08.514Z,99255.22
2022-12-24T20:19:50.689Z,99268.88
2022-12-24T20:22:39.490Z,99258.75
2022-12-24T20:25:21.901Z,99261.25
2022-12-24T20:28:10.433Z,99250.13
2022-12-24T20:30:59.365Z,99265.19
2022-12-24T20:33:42.975Z,99263.50
2022-12-24T20:36:33.375Z,99262.59
2022-12-24T20:39:15.699Z,99272.88
2022-12-24T20:42:04.518Z,99275.03
2022-12-24T20:44:52.649Z,99275.47
2022-12-24T20:47:35.397Z,99279.84
2022-12-24T20:50:26.449Z,99268.22
2022-12-24T20:53:09.479Z,99279.06
2022-12-24T20:56:02.000Z,99281.13
2022-12-24T20:58:43.498Z,99271.75
2022-12-24T21:01:27.731Z,99272.38
2022-12-24T21:04:18.328Z,99276.16
2022-12-24T21:07:07.311Z,99280.34
2022-12-24T21:09:49.687Z,99279.47
2022-12-24T21:12:56.382Z,99274.06
2022-12-24T21:15:48.180Z,99270.47
2022-12-24T21:18:37.347Z,99271.94
2022-12-24T21:21:19.734Z,99278.47
2022-12-24T21:24:08.359Z,99274.13
2022-12-24T21:26:50.770Z,99273.84
2022-12-24T21:29:39.485Z,99273.06
2022-12-24T21:32:28.372Z,99264.53
2022-12-24T21:35:18.720Z,99267.41
2022-12-24T21:38:01.440Z,99268.00
2022-12-24T21:40:49.640Z,99269.44
2022-12-24T21:43:39.271Z,99269.28
2022-12-24T21:46:34.457Z,99267.63
2022-12-24T21:49:34.672Z,99282.84
2022-12-24T21:52:23.477Z,99275.25
2022-12-24T21:55:12.753Z,99274.97
2022-12-24T21:58:00.691Z,99279.88
2022-12-24T22:00:43.598Z,99279.84
2022-12-24T22:03:32.527Z,99271.53
2022-12-24T22:06:34.469Z,99269.91
2022-12-24T22:09:43.443Z,99263.94
2022-12-24T22:12:33.151Z,99259.63
2022-12-24T22:15:16.244Z,99254.00
2022-12-24T22:18:04.704Z,99250.22
2022-12-24T22:20:47.409Z,99244.94
2022-12-24T22:23:41.885Z,99241.72
2022-12-24T22:26:26.469Z,99235.97
2022-12-24T22:29:15.794Z,99234.03
2022-12-24T22:31:57.574Z,99230.88
2022-12-24T22:34:47.503Z,99237.75
2022-12-24T22:37:30.418Z,99228.69
2022-12-24T22:40:19.702Z,99225.00
2022-12-24T22:43:02.461Z,99221.34
2022-12-24T22:45:58.397Z,99218.47
2022-12-24T22:48:49.735Z,99208.38
2022-12-24T22:51:32.363Z,99202.56
2022-12-24T22:54:14.622Z,99205.13
2022-12-24T22:57:03.363Z,99200.94
2022-12-24T22:59:51.681Z,99191.81
2022-12-24T23:02:35.475Z,99185.75
2022-12-24T23:05:24.737Z,99183.69
2022-12-24T23:08:07.383Z,99182.31
2022-12-24T23:10:55.702Z,99174.78
2022-12-24T23:13:56.379Z,99183.81
2022-12-24T23:16:51.424Z,99179.81
2022-12-24T23:19:41.413Z,99185.19
2022-12-24T23:22:23.643Z,99180.78
2022-12-24T23:25:12.372Z,99190.34
2022-12-24T23:27:54.606Z,99191.22
2022-12-24T23:30:43.368Z,99190.22
2022-12-24T23:33:25.718Z,99197.03
2022-12-24T23:36:15.449Z,99190.22
2022-12-24T23:39:05.290Z,99198.00
2022-12-24T23:41:54.441Z,99192.19
2022-12-24T23:44:36.626Z,99202.00
2022-12-24T23:47:26.360Z,99197.56
2022-12-24T23:50:08.720Z,99200.28
2022-12-24T23:52:57.388Z,99202.69
2022-12-24T23:55:46.459Z,99208.31
2022-12-24T23:58:36.713Z,99210.09
